Aloha, Oregon
Current Conditions -  °F | °C
As of 4:38 PM on Friday 31 Oct 2014 (Local Time) from KHIO Reporting Station
Light Rain Light Rain  
Wind Chill: 53°   Ceiling: 2700
Heat Index: 53°   Visibility: 4mi
Dew Point: 50°   Wind: 6mph
Humidity: 89%   Direction: 320°NW
Pressure: 29.84"   Gusts: NA
Location:  45.49°N, 122.86°W
Report Text: KHIO 312338Z 32005KT 4SM -RA BR BKN027 BKN033 OVC041 12/10 A2984 RMK AO2 RAB25 P0002 T01170100
Loading
Personal Weather Stations






























Interactive Weather Map
Tropical Storm Tracking
New forecast layout! Learn more

10-Day Weather Forecast

Advertisements
Track Severe Weather on mobile